Time;durP1;ratioP1;P1;durP2;ratioP2;P2;SDS_P1;SDS_P2;PMS_P1;PMS_P2;Temp;Humidity;BMP_temperature;BMP_pressure;BME280_temperature;BME280_humidity;BME280_pressure;Samples;Min_cycle;Max_cycle;Signal;HPM_P1;HPM_P2
2023/09/09 00:01:32;;;;;;;9.65;7.53;;;22.90;99.90;;;;;;4960266;28;20208;-72
2023/09/09 00:03:59;;;;;;;8.40;7.63;;;22.90;99.90;;;;;;4967673;28;20668;-72
2023/09/09 00:06:25;;;;;;;8.15;7.45;;;22.90;99.90;;;;;;4943232;28;20217;-72
2023/09/09 00:08:50;;;;;;;10.68;7.65;;;22.90;99.90;;;;;;4962457;28;20203;-73
2023/09/09 00:11:16;;;;;;;9.05;8.25;;;22.90;99.90;;;;;;4960857;28;20193;-72
2023/09/09 00:13:42;;;;;;;8.43;7.47;;;22.90;99.90;;;;;;4982682;28;20213;-72
2023/09/09 00:16:08;;;;;;;9.43;8.05;;;22.90;99.90;;;;;;4965671;28;20320;-72
2023/09/09 00:18:34;;;;;;;8.55;7.53;;;22.80;99.90;;;;;;4941916;28;20267;-72
2023/09/09 00:21:00;;;;;;;11.70;8.43;;;22.90;99.90;;;;;;4949382;29;20233;-72
2023/09/09 00:23:26;;;;;;;8.15;7.45;;;22.80;99.90;;;;;;4971301;28;20572;-72
2023/09/09 00:25:52;;;;;;;9.25;8.15;;;22.80;99.90;;;;;;4965277;28;20704;-71
2023/09/09 00:28:20;;;;;;;8.80;7.88;;;22.80;99.90;;;;;;4949522;28;20213;-72
2023/09/09 00:30:46;;;;;;;9.95;7.68;;;22.90;99.90;;;;;;4961464;28;20197;-72
2023/09/09 00:33:12;;;;;;;9.05;7.55;;;22.90;99.90;;;;;;4968730;28;20215;-72
2023/09/09 00:35:39;;;;;;;8.88;7.97;;;22.90;99.90;;;;;;4956180;28;20249;-71
2023/09/09 00:38:12;;;;;;;8.25;7.55;;;22.90;99.90;;;;;;4949208;28;20229;-72
2023/09/09 00:40:38;;;;;;;9.15;8.27;;;22.90;99.90;;;;;;4948683;28;20196;-72
2023/09/09 00:43:04;;;;;;;8.85;8.05;;;22.90;99.90;;;;;;4957183;28;20244;-72
2023/09/09 00:45:30;;;;;;;8.50;7.70;;;22.90;99.90;;;;;;4948463;28;20217;-72
2023/09/09 00:47:57;;;;;;;9.50;8.25;;;22.90;99.90;;;;;;4948864;28;20196;-73
2023/09/09 00:50:24;;;;;;;10.15;8.38;;;22.90;99.90;;;;;;4941111;28;20221;-72
2023/09/09 00:52:50;;;;;;;8.52;7.72;;;22.90;99.90;;;;;;4982219;28;20213;-72
2023/09/09 00:55:16;;;;;;;9.07;8.27;;;22.90;99.90;;;;;;4948497;28;20197;-72
2023/09/09 00:57:41;;;;;;;16.63;8.77;;;22.80;99.90;;;;;;4965816;28;20197;-72
2023/09/09 01:00:11;;;;;;;9.10;8.20;;;22.90;99.90;;;;;;4940645;29;20197;-72
2023/09/09 01:02:41;;;;;;;10.00;8.50;;;22.80;99.90;;;;;;4940248;28;20217;-72
2023/09/09 01:05:09;;;;;;;9.52;8.63;;;22.80;99.90;;;;;;4964350;28;20653;-72
2023/09/09 01:07:46;;;;;;;9.65;8.55;;;22.80;99.90;;;;;;4940552;28;20189;-72
2023/09/09 01:10:13;;;;;;;9.60;8.70;;;22.80;99.90;;;;;;4938029;29;20237;-72
2023/09/09 01:12:41;;;;;;;10.20;9.15;;;22.80;99.90;;;;;;4959686;28;20217;-72
2023/09/09 01:15:07;;;;;;;9.30;8.40;;;22.80;99.90;;;;;;4973888;28;20210;-72
2023/09/09 01:17:35;;;;;;;10.18;9.15;;;22.80;99.90;;;;;;4958098;28;20649;-72
2023/09/09 01:20:07;;;;;;;9.07;8.25;;;22.80;99.90;;;;;;4946893;28;20198;-72
2023/09/09 01:22:36;;;;;;;9.95;9.02;;;22.80;99.90;;;;;;4964464;28;20199;-72
2023/09/09 01:25:05;;;;;;;9.80;8.40;;;22.80;99.90;;;;;;4964405;28;20217;-71
2023/09/09 01:27:31;;;;;;;10.65;8.30;;;22.80;99.90;;;;;;4956408;28;20197;-72
2023/09/09 01:29:58;;;;;;;9.40;8.52;;;22.80;99.90;;;;;;4948620;28;20204;-72
2023/09/09 01:32:24;;;;;;;9.25;8.30;;;22.80;99.90;;;;;;4964368;28;20232;-71
2023/09/09 01:34:52;;;;;;;9.60;8.70;;;22.80;99.90;;;;;;4968238;28;20311;-73
2023/09/09 01:37:18;;;;;;;9.63;8.73;;;22.80;99.90;;;;;;4952396;28;20264;-73
2023/09/09 01:39:44;;;;;;;9.20;8.23;;;22.90;99.90;;;;;;4964201;28;20186;-71
2023/09/09 01:42:11;;;;;;;9.27;8.40;;;22.80;99.90;;;;;;4948338;28;20182;-71
2023/09/09 01:44:36;;;;;;;10.05;9.13;;;22.80;99.90;;;;;;4957460;28;20209;-71
2023/09/09 01:47:03;;;;;;;9.20;8.30;;;22.80;99.90;;;;;;4951484;28;20262;-72
2023/09/09 01:49:28;;;;;;;10.02;9.02;;;22.80;99.90;;;;;;4951169;28;20194;-72
2023/09/09 01:51:54;;;;;;;9.57;8.77;;;22.80;99.90;;;;;;4947364;28;20178;-72
2023/09/09 01:54:20;;;;;;;9.32;8.50;;;22.80;99.90;;;;;;4939669;28;20264;-72
2023/09/09 01:56:46;;;;;;;10.05;8.98;;;22.70;99.90;;;;;;4966480;28;20188;-72
2023/09/09 01:59:11;;;;;;;9.75;8.80;;;22.80;99.90;;;;;;4945360;28;20608;-71
2023/09/09 02:01:37;;;;;;;12.38;9.80;;;22.80;99.90;;;;;;4965208;28;20189;-71
2023/09/09 02:04:03;;;;;;;9.52;8.60;;;22.80;99.90;;;;;;4959343;28;20268;-71
2023/09/09 02:06:28;;;;;;;11.88;8.68;;;22.80;99.90;;;;;;4958667;28;20206;-71
2023/09/09 02:08:54;;;;;;;11.63;9.02;;;22.80;99.90;;;;;;4945036;29;20186;-71
2023/09/09 02:11:20;;;;;;;9.68;8.73;;;22.90;99.90;;;;;;4955644;28;20217;-76
2023/09/09 02:13:46;;;;;;;11.30;9.52;;;22.80;99.90;;;;;;4955374;28;20256;-72
2023/09/09 02:16:12;;;;;;;10.65;9.48;;;22.80;99.90;;;;;;4947620;28;20224;-70
2023/09/09 02:18:39;;;;;;;12.82;9.20;;;22.80;99.90;;;;;;4957310;28;20198;-72
2023/09/09 02:21:07;;;;;;;12.75;8.77;;;22.90;99.90;;;;;;4961869;28;20228;-70
2023/09/09 02:23:33;;;;;;;9.93;8.82;;;22.80;99.90;;;;;;4956455;28;20263;-71
2023/09/09 02:25:58;;;;;;;12.02;9.07;;;22.80;99.90;;;;;;4962620;28;20686;-70
2023/09/09 02:28:25;;;;;;;11.65;9.02;;;22.70;99.90;;;;;;4955971;28;20190;-72
2023/09/09 02:30:51;;;;;;;10.85;8.68;;;22.80;99.90;;;;;;4955492;28;20272;-71
2023/09/09 02:33:16;;;;;;;9.93;9.00;;;22.80;99.90;;;;;;4955842;28;20296;-71
2023/09/09 02:35:43;;;;;;;10.00;8.73;;;22.80;99.90;;;;;;4952260;28;20224;-71
2023/09/09 02:38:09;;;;;;;11.65;9.07;;;22.80;99.90;;;;;;4939756;28;20177;-71
2023/09/09 02:40:35;;;;;;;9.90;9.00;;;22.80;99.90;;;;;;4963373;28;20690;-71
2023/09/09 02:43:01;;;;;;;10.43;9.30;;;22.80;99.90;;;;;;4937571;29;20190;-72
2023/09/09 02:45:27;;;;;;;10.40;8.73;;;22.80;99.90;;;;;;4943648;28;20217;-70
2023/09/09 02:47:53;;;;;;;9.77;8.77;;;22.80;99.90;;;;;;4955238;28;20193;-71
2023/09/09 02:50:19;;;;;;;9.70;8.70;;;22.70;99.90;;;;;;4941379;28;20189;-71
2023/09/09 02:52:48;;;;;;;11.82;8.80;;;22.70;99.90;;;;;;4964905;28;20216;-71
2023/09/09 02:55:14;;;;;;;9.10;8.20;;;22.70;99.90;;;;;;4954461;28;20244;-71
2023/09/09 02:57:40;;;;;;;9.55;8.65;;;22.80;99.90;;;;;;4941004;28;20219;-71
2023/09/09 03:00:09;;;;;;;9.82;8.80;;;22.80;99.90;;;;;;4940879;28;20594;-71
2023/09/09 03:02:35;;;;;;;9.88;8.98;;;22.80;99.90;;;;;;4931854;28;20621;-71
2023/09/09 03:05:03;;;;;;;10.80;9.10;;;22.80;99.90;;;;;;4967075;28;20619;-72
2023/09/09 03:07:29;;;;;;;8.98;8.20;;;22.80;99.90;;;;;;4967097;28;20288;-70
2023/09/09 03:09:55;;;;;;;9.38;8.45;;;22.70;99.90;;;;;;4967331;28;20280;-70
2023/09/09 03:12:22;;;;;;;9.80;8.80;;;22.80;99.90;;;;;;4955630;28;20217;-71
2023/09/09 03:14:48;;;;;;;10.13;8.68;;;22.80;99.90;;;;;;4942409;28;20221;-71
2023/09/09 03:17:14;;;;;;;10.77;9.38;;;22.70;99.90;;;;;;4958642;28;20192;-71
2023/09/09 03:19:40;;;;;;;10.30;9.30;;;22.70;99.90;;;;;;4959731;28;20188;-71
2023/09/09 03:22:06;;;;;;;9.85;8.95;;;22.70;99.90;;;;;;4961571;28;20651;-71
2023/09/09 03:24:31;;;;;;;10.20;9.20;;;22.70;99.90;;;;;;4953730;28;20222;-71
2023/09/09 03:26:58;;;;;;;10.73;9.55;;;22.70;99.90;;;;;;4977489;28;20181;-73
2023/09/09 03:29:24;;;;;;;15.10;9.50;;;22.70;99.90;;;;;;4976429;28;20177;-73
2023/09/09 03:31:51;;;;;;;11.30;9.55;;;22.70;99.90;;;;;;4956236;28;20183;-72
2023/09/09 03:34:18;;;;;;;12.90;9.48;;;22.70;99.90;;;;;;4950217;28;20213;-72
2023/09/09 03:36:43;;;;;;;9.82;8.85;;;22.70;99.90;;;;;;4950361;28;20192;-72
2023/09/09 03:39:11;;;;;;;9.63;8.73;;;22.70;99.90;;;;;;4948776;29;20229;-73
2023/09/09 03:41:39;;;;;;;14.52;9.25;;;22.70;99.90;;;;;;4963414;28;20185;-72
2023/09/09 03:44:05;;;;;;;10.43;9.25;;;22.60;99.90;;;;;;4961032;28;20674;-71
2023/09/09 03:46:31;;;;;;;11.77;8.73;;;22.60;99.90;;;;;;4945879;28;20300;-73
2023/09/09 03:48:58;;;;;;;10.32;9.23;;;22.70;99.90;;;;;;4949974;28;20189;-73
2023/09/09 03:51:25;;;;;;;9.48;8.48;;;22.60;99.90;;;;;;4950233;29;20194;-72
2023/09/09 03:53:51;;;;;;;9.30;8.27;;;22.60;99.90;;;;;;4972667;28;20205;-70
2023/09/09 03:56:18;;;;;;;9.98;8.95;;;22.70;99.90;;;;;;4938928;29;20203;-72
2023/09/09 03:58:44;;;;;;;9.15;8.25;;;22.70;99.90;;;;;;4958302;28;20205;-71
2023/09/09 04:01:12;;;;;;;9.23;8.40;;;22.60;99.90;;;;;;4954447;28;20217;-72
2023/09/09 04:03:40;;;;;;;11.10;9.23;;;22.70;99.90;;;;;;4960793;28;20248;-72
2023/09/09 04:06:11;;;;;;;12.32;9.13;;;22.70;99.90;;;;;;4938600;29;20203;-71
2023/09/09 04:08:39;;;;;;;17.48;8.82;;;22.70;99.90;;;;;;4965662;28;20223;-74
2023/09/09 04:11:06;;;;;;;9.48;8.45;;;22.70;99.90;;;;;;4957848;28;20216;-72
2023/09/09 04:13:33;;;;;;;9.70;8.77;;;22.70;99.90;;;;;;4949994;28;20214;-70
2023/09/09 04:15:59;;;;;;;14.48;8.85;;;22.70;99.90;;;;;;4952232;28;20213;-71
2023/09/09 04:18:29;;;;;;;14.15;8.98;;;22.60;99.90;;;;;;4956243;28;20263;-70
2023/09/09 04:20:54;;;;;;;8.52;7.40;;;22.70;99.90;;;;;;4949392;28;20252;-70
2023/09/09 04:23:20;;;;;;;13.68;8.55;;;22.70;99.90;;;;;;4946909;28;20618;-70
2023/09/09 04:25:46;;;;;;;15.95;8.23;;;22.80;99.90;;;;;;4942388;28;20214;-70
2023/09/09 04:28:13;;;;;;;14.43;8.68;;;22.70;99.90;;;;;;4964638;28;20272;-71
2023/09/09 04:30:40;;;;;;;11.10;7.65;;;22.70;99.90;;;;;;4951120;28;20208;-72
2023/09/09 04:33:11;;;;;;;12.93;8.00;;;22.60;99.90;;;;;;4952970;28;20295;-71
2023/09/09 04:35:39;;;;;;;8.43;7.50;;;22.70;99.90;;;;;;4952918;28;20249;-71
2023/09/09 04:38:06;;;;;;;9.00;8.00;;;22.70;99.90;;;;;;4957222;28;20272;-71
2023/09/09 04:40:37;;;;;;;8.30;7.50;;;22.70;99.90;;;;;;4948243;28;20283;-72
2023/09/09 04:43:03;;;;;;;8.90;7.78;;;22.70;99.90;;;;;;4965456;28;20198;-72
2023/09/09 04:45:29;;;;;;;10.07;7.50;;;22.60;99.90;;;;;;4938060;29;20210;-71
2023/09/09 04:47:54;;;;;;;11.13;7.63;;;22.60;99.90;;;;;;4958825;28;20221;-70
2023/09/09 04:50:20;;;;;;;12.57;8.50;;;22.60;99.90;;;;;;4963459;28;20189;-70
2023/09/09 04:52:47;;;;;;;14.57;8.50;;;22.70;99.90;;;;;;4965751;28;20232;-71
2023/09/09 04:55:14;;;;;;;10.73;8.40;;;22.60;99.90;;;;;;4964441;28;20208;-71
2023/09/09 04:57:41;;;;;;;11.60;8.48;;;22.60;99.90;;;;;;4964681;28;20271;-70
2023/09/09 05:00:08;;;;;;;11.85;8.65;;;22.70;99.90;;;;;;4948728;28;20273;-71
2023/09/09 05:02:37;;;;;;;10.00;7.78;;;22.60;99.90;;;;;;4971898;28;20204;-70
2023/09/09 05:05:04;;;;;;;10.82;7.78;;;22.60;99.90;;;;;;4967725;28;20619;-70
2023/09/09 05:07:35;;;;;;;9.60;8.02;;;22.60;99.90;;;;;;4959935;28;20272;-70
2023/09/09 05:10:06;;;;;;;9.73;7.65;;;22.60;99.90;;;;;;4960027;28;20190;-71
2023/09/09 05:12:36;;;;;;;8.63;7.75;;;22.60;99.90;;;;;;4945867;28;20202;-71
2023/09/09 05:15:06;;;;;;;8.45;7.65;;;22.60;99.90;;;;;;4956500;28;20292;-71
2023/09/09 05:17:33;;;;;;;9.45;7.32;;;22.50;99.90;;;;;;4945309;29;20186;-71
2023/09/09 05:19:58;;;;;;;12.18;7.68;;;22.50;99.90;;;;;;4950148;28;20671;-70
2023/09/09 05:22:24;;;;;;;8.90;8.00;;;22.60;99.90;;;;;;4936985;29;20182;-72
2023/09/09 05:24:50;;;;;;;8.80;7.68;;;22.60;99.90;;;;;;4964376;28;20201;-70
2023/09/09 05:27:16;;;;;;;9.05;7.53;;;22.50;99.90;;;;;;4946044;29;20300;-70
2023/09/09 05:29:43;;;;;;;8.45;7.65;;;22.50;99.90;;;;;;4952582;28;20186;-69
2023/09/09 05:32:09;;;;;;;10.00;8.02;;;22.50;99.90;;;;;;4955592;28;20192;-69
2023/09/09 05:34:35;;;;;;;8.27;7.57;;;22.50;99.90;;;;;;4940071;29;20206;-71
2023/09/09 05:37:00;;;;;;;9.45;7.30;;;22.50;99.90;;;;;;4962845;28;20192;-70
2023/09/09 05:39:26;;;;;;;8.98;8.13;;;22.50;99.90;;;;;;4961897;28;20275;-70
2023/09/09 05:41:52;;;;;;;8.63;7.82;;;22.50;99.90;;;;;;4951339;28;20181;-70
2023/09/09 05:44:18;;;;;;;8.00;7.28;;;22.50;99.90;;;;;;4963325;28;20197;-70
2023/09/09 05:46:44;;;;;;;8.88;7.28;;;22.50;99.90;;;;;;4948187;28;20189;-71
2023/09/09 05:49:09;;;;;;;8.40;7.53;;;22.50;99.90;;;;;;4940544;28;20189;-71
2023/09/09 05:51:35;;;;;;;10.18;8.02;;;22.50;99.90;;;;;;4955877;28;20193;-70
2023/09/09 05:54:01;;;;;;;8.90;7.75;;;22.50;99.90;;;;;;4939544;28;20236;-71
2023/09/09 05:56:27;;;;;;;9.88;7.55;;;22.50;99.90;;;;;;4945346;28;20279;-71
2023/09/09 05:58:54;;;;;;;9.07;7.72;;;22.50;99.90;;;;;;4958673;28;20213;-71
2023/09/09 06:01:21;;;;;;;8.60;7.88;;;22.50;99.90;;;;;;4958830;28;20208;-72
2023/09/09 06:03:49;;;;;;;8.55;7.68;;;22.50;99.90;;;;;;4943191;28;20224;-72
2023/09/09 06:06:15;;;;;;;8.70;7.90;;;22.50;99.90;;;;;;4963881;28;20197;-72
2023/09/09 06:08:41;;;;;;;13.02;7.38;;;22.40;99.90;;;;;;4948431;29;20289;-72
2023/09/09 06:11:06;;;;;;;14.40;8.10;;;22.50;99.90;;;;;;4955729;28;20228;-71
2023/09/09 06:13:32;;;;;;;13.25;7.82;;;22.70;99.90;;;;;;4953002;28;20216;-70
2023/09/09 06:15:58;;;;;;;12.90;7.95;;;22.60;99.90;;;;;;4950982;28;20254;-71
2023/09/09 06:18:24;;;;;;;8.35;6.65;;;22.40;99.90;;;;;;4946746;28;20188;-70
2023/09/09 06:20:52;;;;;;;9.70;7.93;;;22.30;99.90;;;;;;4955719;28;20181;-71
2023/09/09 06:23:19;;;;;;;10.93;7.82;;;22.20;99.90;;;;;;4947442;28;20271;-70
2023/09/09 06:25:45;;;;;;;10.70;8.27;;;22.20;99.90;;;;;;4958539;28;20280;-70
2023/09/09 06:28:11;;;;;;;9.60;7.32;;;22.20;99.90;;;;;;4940133;28;20197;-69
2023/09/09 06:30:44;;;;;;;8.88;8.05;;;22.20;99.90;;;;;;4928645;29;20190;-70
2023/09/09 06:33:11;;;;;;;8.88;7.85;;;22.20;99.90;;;;;;4957156;28;20213;-71
2023/09/09 06:35:37;;;;;;;8.73;7.90;;;22.20;99.90;;;;;;4955683;28;20206;-71
2023/09/09 06:38:03;;;;;;;10.27;9.38;;;22.20;99.90;;;;;;4947517;28;20268;-71
2023/09/09 06:40:31;;;;;;;14.25;10.93;;;22.00;99.90;;;;;;4960773;28;20255;-72
2023/09/09 06:42:57;;;;;;;13.00;10.48;;;21.60;99.90;;;;;;4983463;28;20204;-72
2023/09/09 06:45:23;;;;;;;13.07;11.57;;;21.50;99.90;;;;;;4957327;28;20593;-72
2023/09/09 06:47:49;;;;;;;13.27;11.88;;;21.40;99.90;;;;;;4973910;28;20216;-71
2023/09/09 06:50:15;;;;;;;13.75;12.35;;;21.30;99.90;;;;;;4966816;28;20189;-71
2023/09/09 06:52:40;;;;;;;13.55;12.15;;;21.30;99.90;;;;;;4938225;28;20309;-71
2023/09/09 06:55:07;;;;;;;14.18;12.70;;;21.30;99.90;;;;;;4950980;28;20198;-71
2023/09/09 06:57:34;;;;;;;15.73;14.07;;;21.30;99.90;;;;;;4975347;28;20217;-71
2023/09/09 07:00:00;;;;;;;15.55;13.95;;;21.40;99.90;;;;;;4937229;28;20205;-71
2023/09/09 07:02:25;;;;;;;16.13;14.32;;;21.50;99.90;;;;;;4958973;28;20208;-71
2023/09/09 07:04:53;;;;;;;16.85;15.05;;;21.50;99.90;;;;;;4950399;28;20210;-71
2023/09/09 07:07:18;;;;;;;18.20;15.43;;;21.50;99.90;;;;;;4979014;28;20234;-70
2023/09/09 07:09:44;;;;;;;17.65;15.48;;;21.50;99.90;;;;;;4952286;29;20190;-70
2023/09/09 07:12:10;;;;;;;16.45;14.65;;;21.60;99.90;;;;;;4972072;28;20194;-71
2023/09/09 07:14:36;;;;;;;16.80;15.00;;;21.70;99.90;;;;;;4941566;29;20305;-70
2023/09/09 07:17:03;;;;;;;15.73;14.13;;;21.90;99.90;;;;;;4975496;28;20289;-69
2023/09/09 07:19:29;;;;;;;14.93;13.38;;;21.90;99.90;;;;;;4958973;28;20189;-70
2023/09/09 07:21:55;;;;;;;15.77;12.93;;;22.10;99.90;;;;;;4939370;28;20674;-70
2023/09/09 07:24:20;;;;;;;15.60;14.10;;;22.20;99.90;;;;;;4949049;28;20190;-70
2023/09/09 07:26:46;;;;;;;16.25;13.43;;;22.20;99.90;;;;;;4946285;28;20263;-70
2023/09/09 07:29:12;;;;;;;15.13;13.55;;;22.20;99.90;;;;;;4957595;28;20190;-71
2023/09/09 07:31:38;;;;;;;15.30;13.73;;;22.20;99.90;;;;;;4956526;28;20699;-71
2023/09/09 07:34:03;;;;;;;14.82;13.43;;;22.20;99.90;;;;;;4958199;28;20214;-71
2023/09/09 07:36:29;;;;;;;14.82;12.95;;;22.20;99.90;;;;;;4956094;28;20209;-70
2023/09/09 07:38:55;;;;;;;13.50;12.10;;;22.30;99.90;;;;;;4943627;29;20183;-70
2023/09/09 07:41:21;;;;;;;15.05;13.50;;;22.40;99.90;;;;;;4950453;28;20225;-70
2023/09/09 07:43:48;;;;;;;14.63;13.13;;;22.40;99.90;;;;;;4947156;29;20230;-71
2023/09/09 07:46:14;;;;;;;14.02;12.63;;;22.40;99.90;;;;;;4957391;28;20206;-70
2023/09/09 07:48:41;;;;;;;14.30;12.98;;;22.40;99.90;;;;;;4974964;28;20190;-71
2023/09/09 07:51:07;;;;;;;15.18;13.57;;;22.50;99.90;;;;;;4971795;28;20193;-71
2023/09/09 07:53:33;;;;;;;14.77;13.27;;;22.50;99.90;;;;;;4957964;28;20217;-70
2023/09/09 07:55:58;;;;;;;14.07;12.63;;;22.50;99.90;;;;;;4941659;28;20224;-71
2023/09/09 07:58:25;;;;;;;12.52;11.32;;;22.60;99.90;;;;;;4957709;28;20186;-71
2023/09/09 08:01:03;;;;;;;13.55;12.20;;;22.70;99.90;;;;;;4958277;28;20305;-71
2023/09/09 08:03:30;;;;;;;15.75;14.32;;;22.70;99.90;;;;;;4950484;28;20216;-70
2023/09/09 08:05:56;;;;;;;15.00;13.65;;;22.70;99.90;;;;;;4941579;28;20214;-70
2023/09/09 08:08:22;;;;;;;14.30;13.00;;;22.70;99.90;;;;;;4983078;28;20189;-71
2023/09/09 08:10:49;;;;;;;15.07;12.95;;;22.70;99.90;;;;;;4949987;28;20213;-71
2023/09/09 08:13:15;;;;;;;14.88;13.38;;;22.70;99.90;;;;;;4959056;28;20216;-71
2023/09/09 08:15:41;;;;;;;15.18;13.80;;;22.80;99.90;;;;;;4955130;28;20198;-70
2023/09/09 08:18:07;;;;;;;15.02;13.70;;;22.80;99.90;;;;;;4952286;28;20186;-71
2023/09/09 08:20:32;;;;;;;13.88;12.55;;;22.80;99.90;;;;;;4941553;28;20190;-70
2023/09/09 08:22:58;;;;;;;13.45;12.23;;;22.90;99.90;;;;;;4942647;28;20196;-71
2023/09/09 08:25:24;;;;;;;14.05;12.70;;;22.90;99.90;;;;;;4949139;28;20241;-70
2023/09/09 08:27:50;;;;;;;14.27;12.88;;;22.90;99.90;;;;;;4957464;28;20197;-69
2023/09/09 08:30:17;;;;;;;15.10;12.60;;;22.90;99.90;;;;;;4949335;28;20193;-69
2023/09/09 08:32:43;;;;;;;12.68;11.48;;;22.90;99.90;;;;;;4957687;28;20241;-70
2023/09/09 08:35:08;;;;;;;12.73;11.38;;;22.90;99.90;;;;;;4954704;28;20225;-69
2023/09/09 08:37:34;;;;;;;13.05;11.70;;;22.90;99.90;;;;;;4974653;28;20606;-70
2023/09/09 08:40:00;;;;;;;13.18;11.10;;;22.90;99.90;;;;;;4957413;28;20198;-70
2023/09/09 08:43:11;;;;;;;12.15;10.95;;;22.90;99.90;;;;;;4949131;28;20193;-70
2023/09/09 08:45:50;;;;;;;24.10;11.13;;;22.90;99.90;;;;;;4954507;28;20603;-70
2023/09/09 08:48:20;;;;;;;12.32;11.02;;;23.00;99.90;;;;;;4955629;28;20269;-70
2023/09/09 08:50:48;;;;;;;11.80;10.40;;;23.10;99.90;;;;;;4946905;28;20181;-70
2023/09/09 08:53:17;;;;;;;15.65;10.45;;;23.20;99.90;;;;;;4960041;28;20224;-71
2023/09/09 08:55:43;;;;;;;11.73;10.65;;;23.20;99.90;;;;;;4963253;28;20208;-70
2023/09/09 08:58:09;;;;;;;11.10;9.95;;;23.20;99.90;;;;;;4951316;28;20191;-69
2023/09/09 09:00:37;;;;;;;10.77;9.68;;;23.30;99.90;;;;;;4956839;28;20189;-70
2023/09/09 09:03:04;;;;;;;10.75;9.65;;;23.30;99.90;;;;;;4933881;29;20189;-70
2023/09/09 09:05:32;;;;;;;16.30;10.35;;;23.30;99.90;;;;;;4980409;28;20205;-70
2023/09/09 09:08:02;;;;;;;10.80;9.43;;;23.30;99.90;;;;;;4963298;28;20237;-70
2023/09/09 09:10:28;;;;;;;13.77;10.15;;;23.30;99.90;;;;;;4957277;28;20189;-69
2023/09/09 09:12:54;;;;;;;14.68;10.50;;;23.30;99.90;;;;;;4956962;28;20646;-69
2023/09/09 09:15:21;;;;;;;11.40;10.30;;;23.30;99.90;;;;;;4948823;28;20198;-69
2023/09/09 09:17:46;;;;;;;13.05;10.50;;;23.30;99.90;;;;;;4961947;28;20239;-69
2023/09/09 09:20:31;;;;;;;12.07;10.98;;;23.20;99.90;;;;;;4964954;28;20182;-69
2023/09/09 09:23:03;;;;;;;11.45;10.25;;;23.20;99.90;;;;;;4956891;28;20185;-70
2023/09/09 09:25:44;;;;;;;10.80;9.73;;;23.20;99.90;;;;;;4940426;28;20210;-69
2023/09/09 09:28:15;;;;;;;10.30;9.23;;;23.20;99.90;;;;;;4989705;28;20568;-69
2023/09/09 09:30:42;;;;;;;9.93;9.02;;;23.20;99.90;;;;;;4956789;28;20263;-70
2023/09/09 09:33:08;;;;;;;10.32;9.43;;;23.20;99.90;;;;;;4953165;29;20214;-69
2023/09/09 09:35:38;;;;;;;10.18;9.27;;;23.20;99.90;;;;;;4956349;28;20201;-70
2023/09/09 09:38:09;;;;;;;11.27;10.27;;;23.20;99.90;;;;;;4956336;28;20569;-69
2023/09/09 09:40:38;;;;;;;9.70;8.90;;;23.30;99.90;;;;;;4948458;28;20189;-69
2023/09/09 09:43:04;;;;;;;10.73;9.77;;;23.30;99.90;;;;;;4940615;28;20186;-69
2023/09/09 09:45:30;;;;;;;9.77;8.93;;;23.30;99.90;;;;;;4963927;28;20217;-70
2023/09/09 09:47:58;;;;;;;10.65;9.65;;;23.30;99.90;;;;;;4948395;28;20268;-70
2023/09/09 09:50:34;;;;;;;9.98;9.02;;;23.30;99.90;;;;;;4964198;28;20243;-69
2023/09/09 09:53:05;;;;;;;10.27;9.30;;;23.30;99.90;;;;;;4948109;28;20248;-69
2023/09/09 09:55:34;;;;;;;9.95;9.15;;;23.30;99.90;;;;;;4955726;28;20206;-67
2023/09/09 09:58:02;;;;;;;9.20;8.48;;;23.30;99.90;;;;;;4973270;28;20219;-69
2023/09/09 10:00:29;;;;;;;9.38;8.57;;;23.40;99.90;;;;;;4973037;28;20198;-71
2023/09/09 10:03:05;;;;;;;9.57;8.73;;;23.40;99.90;;;;;;4940131;28;20185;-70
2023/09/09 10:05:33;;;;;;;9.43;8.63;;;23.30;99.90;;;;;;4947637;28;20263;-69
2023/09/09 10:08:28;;;;;;;9.55;8.70;;;23.40;99.90;;;;;;4973079;28;20231;-69
2023/09/09 10:11:10;;;;;;;11.25;9.05;;;23.40;99.90;;;;;;4955581;28;20192;-69
2023/09/09 10:14:14;;;;;;;9.30;8.40;;;23.40;99.90;;;;;;4989434;28;20201;-69
2023/09/09 10:16:42;;;;;;;9.73;8.75;;;23.50;99.90;;;;;;4936995;29;20237;-68
2023/09/09 10:19:11;;;;;;;9.10;8.30;;;23.50;99.90;;;;;;4955802;28;20277;-69
2023/09/09 10:21:39;;;;;;;8.90;8.20;;;23.50;99.90;;;;;;4954392;28;20273;-70
2023/09/09 10:24:07;;;;;;;9.57;8.68;;;23.50;99.90;;;;;;4955296;28;20186;-69
2023/09/09 10:26:37;;;;;;;9.25;8.38;;;23.50;99.90;;;;;;4957984;28;20296;-66
2023/09/09 10:29:04;;;;;;;8.63;7.85;;;23.50;99.90;;;;;;4968886;28;20182;-69
2023/09/09 10:31:31;;;;;;;8.57;7.97;;;23.60;99.90;;;;;;4955589;28;20240;-69
2023/09/09 10:34:01;;;;;;;9.10;8.25;;;23.50;99.90;;;;;;4972624;28;20251;-69
2023/09/09 10:36:31;;;;;;;9.93;8.02;;;23.60;99.90;;;;;;4963677;28;20233;-68
2023/09/09 10:38:57;;;;;;;8.75;7.85;;;23.50;99.90;;;;;;4968991;28;20668;-69
2023/09/09 10:41:22;;;;;;;9.18;7.75;;;23.60;99.90;;;;;;4949900;28;20189;-69
2023/09/09 10:43:48;;;;;;;8.35;7.65;;;23.50;99.90;;;;;;4955325;28;20628;-69
2023/09/09 10:46:14;;;;;;;8.98;7.80;;;23.60;99.90;;;;;;4944282;29;20210;-69
2023/09/09 10:48:44;;;;;;;8.77;8.07;;;23.60;99.90;;;;;;4955337;28;20194;-69
2023/09/09 10:51:15;;;;;;;8.20;7.57;;;23.60;99.90;;;;;;4963577;28;20266;-69
2023/09/09 10:53:41;;;;;;;8.50;7.70;;;23.60;99.90;;;;;;4983431;28;20205;-69
2023/09/09 10:56:15;;;;;;;8.38;7.57;;;23.60;99.90;;;;;;4944494;28;20260;-69
2023/09/09 10:58:44;;;;;;;8.35;7.55;;;23.60;99.90;;;;;;4955081;28;20292;-69
2023/09/09 11:01:23;;;;;;;8.90;8.20;;;23.60;99.90;;;;;;4972488;28;20202;-69
2023/09/09 11:03:49;;;;;;;7.88;7.28;;;23.70;99.90;;;;;;4943159;28;20195;-70
2023/09/09 11:06:31;;;;;;;8.27;7.65;;;23.60;99.90;;;;;;4958885;28;20669;-69
2023/09/09 11:09:00;;;;;;;8.52;7.78;;;23.70;99.90;;;;;;4932559;28;20178;-71
2023/09/09 11:11:35;;;;;;;9.52;8.48;;;23.70;99.90;;;;;;4972515;28;20186;-68
2023/09/09 11:14:06;;;;;;;8.70;7.80;;;23.70;99.90;;;;;;4968843;28;20243;-70
2023/09/09 11:16:41;;;;;;;8.48;7.70;;;23.70;99.90;;;;;;4939629;28;20210;-69
2023/09/09 11:19:16;;;;;;;8.65;7.85;;;23.70;99.90;;;;;;4955751;28;20667;-69
2023/09/09 11:21:47;;;;;;;8.10;7.50;;;;;;;;;;4955499;28;20240;-69
2023/09/09 11:24:13;;;;;;;8.02;7.32;;;23.70;99.90;;;;;;4962513;28;20195;-69
2023/09/09 11:26:43;;;;;;;8.40;7.70;;;23.70;99.90;;;;;;4956036;28;20245;-70
2023/09/09 11:29:10;;;;;;;8.73;7.93;;;23.70;99.90;;;;;;4973298;28;20174;-68
2023/09/09 11:31:36;;;;;;;8.00;7.28;;;23.70;99.90;;;;;;4957811;28;20193;-69
2023/09/09 11:34:01;;;;;;;8.38;7.57;;;23.70;99.90;;;;;;4972879;28;20212;-70
2023/09/09 11:36:29;;;;;;;8.57;7.85;;;23.70;99.90;;;;;;4953003;28;20210;-69
2023/09/09 11:38:59;;;;;;;7.95;7.25;;;23.80;99.90;;;;;;4958484;28;20186;-69
2023/09/09 11:41:32;;;;;;;7.82;7.15;;;23.70;99.90;;;;;;4939588;28;20182;-70
2023/09/09 11:44:06;;;;;;;7.80;7.10;;;23.80;99.90;;;;;;4948832;29;20198;-69
2023/09/09 11:46:41;;;;;;;10.55;6.80;;;23.70;99.90;;;;;;4956264;28;20218;-69
2023/09/09 11:49:08;;;;;;;9.82;7.47;;;23.70;99.90;;;;;;4972013;28;20185;-69
2023/09/09 11:51:35;;;;;;;8.05;7.40;;;23.80;99.90;;;;;;4952036;28;20193;-69
2023/09/09 11:54:03;;;;;;;8.13;7.32;;;23.80;99.90;;;;;;4942017;28;20244;-69
2023/09/09 11:56:33;;;;;;;8.32;7.45;;;23.80;99.90;;;;;;4950023;28;20204;-69
2023/09/09 11:59:05;;;;;;;7.45;6.85;;;23.80;99.90;;;;;;4958229;28;20192;-69
2023/09/09 12:01:51;;;;;;;8.45;7.28;;;23.80;99.90;;;;;;4958069;28;20189;-71
2023/09/09 12:04:16;;;;;;;7.32;6.55;;;23.80;99.90;;;;;;4942313;28;20317;-68
2023/09/09 12:06:46;;;;;;;7.85;7.15;;;23.80;99.90;;;;;;4960427;28;20192;-69
2023/09/09 12:09:13;;;;;;;8.32;7.07;;;23.80;99.90;;;;;;4947219;28;20565;-69
2023/09/09 12:11:41;;;;;;;7.47;6.78;;;23.80;99.90;;;;;;4957921;28;20189;-69
2023/09/09 12:14:07;;;;;;;9.77;7.00;;;23.80;99.90;;;;;;4938567;29;20215;-68
2023/09/09 12:16:34;;;;;;;12.48;7.72;;;23.80;99.90;;;;;;4965938;28;20217;-69
2023/09/09 12:19:00;;;;;;;7.68;6.97;;;23.60;99.90;;;;;;4938514;29;20272;-68
2023/09/09 12:21:26;;;;;;;7.40;6.80;;;23.60;99.90;;;;;;4957628;28;20221;-69
2023/09/09 12:24:00;;;;;;;7.03;6.40;;;23.50;99.90;;;;;;4962205;28;20551;-69
2023/09/09 12:26:26;;;;;;;7.93;7.22;;;23.50;99.90;;;;;;4993300;28;20212;-69
2023/09/09 12:29:11;;;;;;;7.95;7.20;;;23.50;99.90;;;;;;4957469;28;20204;-69
2023/09/09 12:31:55;;;;;;;7.63;7.03;;;23.50;99.90;;;;;;4957673;28;20208;-69
2023/09/09 12:34:24;;;;;;;7.82;7.03;;;23.50;99.90;;;;;;4944980;28;20296;-68
2023/09/09 12:36:56;;;;;;;8.13;7.43;;;23.40;99.90;;;;;;4956820;28;20290;-69
2023/09/09 12:39:24;;;;;;;7.63;6.82;;;23.50;99.90;;;;;;4938502;29;20179;-68
2023/09/09 12:42:04;;;;;;;7.70;7.00;;;23.50;99.90;;;;;;4966853;28;20185;-69
2023/09/09 12:44:33;;;;;;;7.85;7.13;;;23.40;99.90;;;;;;4959979;28;20264;-69